Time;durP1;ratioP1;P1;durP2;ratioP2;P2;SDS_P1;SDS_P2;PMS_P1;PMS_P2;Temp;Humidity;BMP_temperature;BMP_pressure;BME280_temperature;BME280_humidity;BME280_pressure;Samples;Min_cycle;Max_cycle;Signal;HPM_P1;HPM_P2
2021/08/03 00:02:08;;;;;;;2.98;1.20;;;;;;;19.89;61.78;100218.83;1736049;80;21153;-72
2021/08/03 00:04:42;;;;;;;3.83;1.60;;;;;;;19.84;61.73;100215.41;1736177;80;21069;-72
2021/08/03 00:07:11;;;;;;;4.72;1.80;;;;;;;19.81;61.73;100219.27;1732719;80;21056;-71
2021/08/03 00:09:40;;;;;;;3.27;1.40;;;;;;;19.80;61.73;100217.63;1736270;80;21055;-71
2021/08/03 00:12:15;;;;;;;2.60;1.20;;;;;;;19.80;61.80;100222.12;1715848;81;21095;-72
2021/08/03 00:14:44;;;;;;;3.27;1.40;;;;;;;19.80;61.63;100220.30;1741570;80;21539;-73
2021/08/03 00:17:16;;;;;;;4.80;1.57;;;;;;;19.78;61.58;100220.97;1735542;80;21046;-71
2021/08/03 00:19:45;;;;;;;5.42;1.50;;;;;;;19.73;61.65;100218.00;1719003;80;21015;-73
2021/08/03 00:22:12;;;;;;;4.12;1.70;;;;;;;19.64;61.67;100219.13;1741632;80;21096;-72
2021/08/03 00:24:39;;;;;;;4.53;1.72;;;;;;;19.61;61.91;100217.65;1739547;80;21043;-76
2021/08/03 00:27:06;;;;;;;3.45;1.57;;;;;;;19.63;61.89;100214.28;1732761;80;21689;-72
2021/08/03 00:29:32;;;;;;;3.40;1.50;;;;;;;19.65;61.90;100217.61;1741927;80;21545;-74
2021/08/03 00:32:00;;;;;;;3.33;1.30;;;;;;;19.66;61.79;100218.44;1720769;81;21124;-76
2021/08/03 00:34:26;;;;;;;2.55;1.10;;;;;;;19.60;61.75;100225.36;1716293;80;21052;-71
2021/08/03 00:36:53;;;;;;;3.83;1.45;;;;;;;19.56;61.82;100223.23;1719279;81;21029;-73
2021/08/03 00:39:20;;;;;;;3.75;1.67;;;;;;;19.51;61.79;100221.62;1743608;80;21134;-72
2021/08/03 00:41:56;;;;;;;4.17;1.67;;;;;;;19.47;61.87;100221.18;1738486;80;21618;-74
2021/08/03 00:44:46;;;;;;;5.03;1.65;;;;;;;19.44;61.84;100222.88;1713638;80;21625;-72
2021/08/03 00:47:16;;;;;;;2.87;1.32;;;;;;;19.39;61.83;100219.94;1738693;80;21043;-72
2021/08/03 00:49:45;;;;;;;3.45;1.15;;;;;;;19.28;62.05;100223.39;1747430;80;21009;-72
2021/08/03 00:52:14;;;;;;;4.58;1.42;;;;;;;19.20;62.23;100227.48;1745022;80;21090;-73
2021/08/03 00:54:41;;;;;;;2.67;1.12;;;;;;;19.18;62.49;100232.66;1680307;83;21035;-71
2021/08/03 00:57:09;;;;;;;4.20;1.62;;;;;;;19.20;62.47;100229.30;1725663;80;21519;-72
2021/08/03 00:59:36;;;;;;;4.35;1.70;;;;;;;19.20;62.50;100229.30;1748646;80;21102;-71
2021/08/03 01:02:07;;;;;;;3.83;1.67;;;;;;;19.14;62.47;100224.71;1755142;80;21030;-72
2021/08/03 01:04:34;;;;;;;3.70;1.57;;;;;;;19.08;62.58;100223.09;1749384;80;21691;-72
2021/08/03 01:07:24;;;;;;;3.92;1.62;;;;;;;19.04;62.85;100230.30;1743300;80;21094;-71
2021/08/03 01:10:04;;;;;;;3.15;1.40;;;;;;;18.98;63.10;100232.35;1747858;80;21083;-72
2021/08/03 01:13:16;;;;;;;4.90;1.80;;;;;;;18.90;63.47;100230.61;1687971;83;21024;-71
2021/08/03 01:16:07;;;;;;;4.10;1.75;;;;;;;18.87;63.72;100240.30;1738518;80;21067;-72
2021/08/03 01:18:51;;;;;;;5.20;1.92;;;;;;;18.87;63.74;100239.78;1746327;80;21498;-72
2021/08/03 01:21:47;;;;;;;4.37;2.02;;;;;;;18.85;63.64;100237.81;1747654;80;21048;-72
2021/08/03 01:24:46;;;;;;;4.28;1.75;;;;;;;18.81;63.71;100247.16;1719735;80;21109;-72
2021/08/03 01:27:58;;;;;;;5.90;2.22;;;;;;;18.71;63.99;100243.88;1721046;80;21057;-71
2021/08/03 01:30:25;;;;;;;3.52;1.70;;;;;;;18.61;64.32;100251.30;1748778;80;21499;-72
2021/08/03 01:32:51;;;;;;;4.37;1.90;;;;;;;18.52;64.47;100255.88;1746344;80;21115;-71
2021/08/03 01:35:18;;;;;;;4.60;1.85;;;;;;;18.48;64.74;100259.91;1716586;80;22258;-72
2021/08/03 01:37:45;;;;;;;5.53;2.17;;;;;;;18.47;64.68;100267.56;1678236;83;21072;-73
2021/08/03 01:40:13;;;;;;;4.67;2.30;;;;;;;18.51;64.64;100269.70;1745902;80;21008;-71
2021/08/03 01:42:43;;;;;;;6.05;1.90;;;;;;;18.54;64.56;100269.84;1713924;82;21060;-71
2021/08/03 01:45:11;;;;;;;6.15;2.02;;;;;;;18.55;64.54;100271.50;1749157;80;21138;-71
2021/08/03 01:47:39;;;;;;;4.10;1.87;;;;;;;18.54;64.40;100276.50;1740275;80;21043;-73
2021/08/03 01:50:08;;;;;;;5.28;1.72;;;;;;;18.52;64.49;100281.18;1722566;80;21052;-72
2021/08/03 01:52:37;;;;;;;5.78;2.42;;;;;;;18.48;64.54;100275.38;1713192;80;21074;-71
2021/08/03 01:55:08;;;;;;;4.80;1.82;;;;;;;18.45;64.74;100275.73;1714825;80;21051;-73
2021/08/03 01:57:39;;;;;;;6.40;1.72;;;;;;;18.47;64.77;100274.22;1742500;80;22459;-71
2021/08/03 02:00:08;;;;;;;4.58;1.55;;;;;;;18.51;64.69;100279.03;1715651;80;21077;-71
2021/08/03 02:02:36;;;;;;;4.65;2.02;;;;;;;18.57;64.71;100284.14;1712990;80;21060;-71
2021/08/03 02:05:08;;;;;;;5.92;2.02;;;;;;;18.59;64.64;100282.63;1719396;80;21021;-71
2021/08/03 02:07:36;;;;;;;5.00;1.65;;;;;;;18.60;64.57;100286.97;1745150;80;21694;-74
2021/08/03 02:10:04;;;;;;;5.50;2.17;;;;;;;18.58;64.65;100289.81;1742742;80;21474;-74
2021/08/03 02:12:33;;;;;;;5.40;1.52;;;;;;;18.57;64.72;100291.63;1746409;80;21029;-74
2021/08/03 02:15:00;;;;;;;4.47;1.95;;;;;;;18.53;64.85;100290.33;1711068;82;21055;-73
2021/08/03 02:17:29;;;;;;;4.00;1.60;;;;;;;18.48;64.98;100290.55;1717336;82;21011;-73
2021/08/03 02:20:01;;;;;;;3.65;1.52;;;;;;;18.49;65.19;100296.18;1705288;82;21062;-73
2021/08/03 02:22:28;;;;;;;4.40;1.72;;;;;;;18.56;65.03;100292.64;1743946;80;22058;-73
2021/08/03 02:25:00;;;;;;;4.08;1.67;;;;;;;18.62;64.93;100295.09;1739043;80;22569;-74
2021/08/03 02:27:27;;;;;;;3.92;1.75;;;;;;;18.68;64.84;100303.72;1746657;80;21083;-72
2021/08/03 02:29:54;;;;;;;4.30;1.75;;;;;;;18.72;64.61;100306.34;1745478;80;21039;-72
2021/08/03 02:32:28;;;;;;;4.97;1.92;;;;;;;18.72;64.43;100306.34;1719354;80;21121;-72
2021/08/03 02:35:06;;;;;;;7.40;1.60;;;;;;;18.69;64.38;100309.88;1706470;82;22499;-71
2021/08/03 02:37:36;;;;;;;4.70;2.22;;;;;;;18.68;64.44;100308.23;1741272;80;21091;-73
2021/08/03 02:40:05;;;;;;;8.83;2.30;;;;;;;18.66;64.39;100314.22;1720288;81;21070;-73
2021/08/03 02:42:34;;;;;;;7.25;2.22;;;;;;;18.62;64.41;100320.41;1740636;80;21594;-74
2021/08/03 02:45:02;;;;;;;5.15;2.05;;;;;;;18.61;64.25;100321.91;1734119;81;21073;-72
2021/08/03 02:47:40;;;;;;;4.53;2.00;;;;;;;18.61;64.17;100326.77;1748274;80;21149;-71
2021/08/03 02:50:06;;;;;;;5.85;2.00;;;;;;;18.61;64.23;100322.77;1740195;80;21539;-71
2021/08/03 02:52:36;;;;;;;4.42;2.27;;;;;;;18.60;64.29;100327.76;1719273;81;21470;-71
2021/08/03 02:55:08;;;;;;;4.75;2.47;;;;;;;18.55;64.43;100325.61;1718217;80;21068;-71
2021/08/03 02:57:34;;;;;;;4.72;2.27;;;;;;;18.50;64.58;100325.83;1735538;80;21100;-71
2021/08/03 03:00:03;;;;;;;4.35;2.02;;;;;;;18.44;64.65;100331.37;1719983;80;22215;-72
2021/08/03 03:02:35;;;;;;;4.60;2.05;;;;;;;18.40;64.83;100331.89;1743696;80;21922;-73
2021/08/03 03:05:16;;;;;;;5.62;2.55;;;;;;;18.38;64.96;100336.88;1739439;80;21095;-72
2021/08/03 03:07:49;;;;;;;6.33;2.35;;;;;;;18.41;64.98;100331.72;1716530;80;21114;-73
2021/08/03 03:10:27;;;;;;;4.47;2.20;;;;;;;18.46;64.93;100341.82;1740189;80;21033;-71
2021/08/03 03:13:07;;;;;;;4.22;1.90;;;;;;;18.52;64.69;100341.13;1743339;80;21513;-72
2021/08/03 03:15:33;;;;;;;3.75;1.87;;;;;;;18.60;64.35;100345.08;1712721;80;21595;-73
2021/08/03 03:18:01;;;;;;;5.42;2.17;;;;;;;18.61;64.16;100350.75;1738695;80;21721;-72
2021/08/03 03:20:28;;;;;;;6.20;2.02;;;;;;;18.61;63.94;100348.56;1742263;80;21032;-72
2021/08/03 03:22:55;;;;;;;5.08;2.05;;;;;;;18.57;63.77;100350.75;1736128;80;21106;-72
2021/08/03 03:25:25;;;;;;;4.47;1.92;;;;;;;18.49;63.94;100352.98;1714496;80;21107;-74
2021/08/03 03:27:56;;;;;;;4.47;2.33;;;;;;;18.41;64.04;100354.36;1737746;80;21057;-72
2021/08/03 03:30:22;;;;;;;9.78;2.62;;;;;;;18.36;64.26;100357.53;1724249;80;21084;-73
2021/08/03 03:32:49;;;;;;;5.40;2.00;;;;;;;18.35;64.36;100366.52;1718751;81;21052;-73
2021/08/03 03:35:19;;;;;;;4.55;2.02;;;;;;;18.39;64.40;100363.00;1722665;80;21064;-72
2021/08/03 03:37:49;;;;;;;4.45;2.05;;;;;;;18.43;64.27;100367.51;1711001;80;21121;-72
2021/08/03 03:40:19;;;;;;;5.47;2.45;;;;;;;18.44;64.24;100375.81;1711302;80;22080;-72
2021/08/03 03:42:47;;;;;;;5.70;1.98;;;;;;;18.43;64.30;100376.32;1715563;80;21045;-72
2021/08/03 03:45:15;;;;;;;4.47;2.22;;;;;;;18.45;64.36;100381.48;1714061;80;21126;-73
2021/08/03 03:47:48;;;;;;;4.67;2.25;;;;;;;18.46;64.42;100373.31;1740397;80;21056;-73
2021/08/03 03:50:19;;;;;;;5.92;2.10;;;;;;;18.50;64.35;100381.78;1718281;80;21712;-72
2021/08/03 03:52:50;;;;;;;6.20;2.37;;;;;;;18.52;64.26;100379.25;1741811;80;21059;-75
2021/08/03 03:55:20;;;;;;;4.55;2.10;;;;;;;18.59;64.22;100378.05;1723757;80;21068;-72
2021/08/03 03:57:46;;;;;;;4.42;1.90;;;;;;;18.69;64.00;100380.02;1711826;82;21108;-72
2021/08/03 04:00:14;;;;;;;3.77;1.82;;;;;;;18.73;63.82;100382.64;1725748;80;21048;-74
2021/08/03 04:02:43;;;;;;;4.58;2.40;;;;;;;18.76;63.69;100381.45;1740547;80;22273;-70
2021/08/03 04:05:12;;;;;;;4.30;2.02;;;;;;;18.79;63.38;100386.94;1703998;82;22201;-73
2021/08/03 04:07:39;;;;;;;6.25;2.15;;;;;;;18.81;63.33;100396.44;1717952;80;21069;-71
2021/08/03 04:10:09;;;;;;;4.42;1.75;;;;;;;18.82;63.05;100394.59;1736430;80;21098;-72
2021/08/03 04:12:37;;;;;;;5.67;2.58;;;;;;;18.82;63.04;100396.74;1740748;80;21103;-72
2021/08/03 04:15:07;;;;;;;4.70;2.17;;;;;;;18.84;63.00;100403.27;1731112;80;21028;-75
2021/08/03 04:17:35;;;;;;;3.77;1.95;;;;;;;18.87;63.00;100394.92;1736500;80;21068;-75
2021/08/03 04:20:04;;;;;;;5.05;2.20;;;;;;;18.96;62.88;100397.84;1699285;82;21123;-73
2021/08/03 04:22:31;;;;;;;3.95;1.87;;;;;;;19.05;62.60;100390.13;1702628;82;21074;-71
2021/08/03 04:24:57;;;;;;;4.55;2.08;;;;;;;19.11;62.38;100385.42;1697208;82;22391;-72
2021/08/03 04:27:24;;;;;;;5.00;2.00;;;;;;;19.17;62.27;100384.38;1740521;80;21140;-72
2021/08/03 04:29:50;;;;;;;5.22;2.00;;;;;;;19.18;62.32;100388.69;1733525;80;21660;-72
2021/08/03 04:32:16;;;;;;;5.50;2.60;;;;;;;19.21;62.38;100395.00;1736080;80;21107;-73
2021/08/03 04:34:44;;;;;;;4.25;2.10;;;;;;;19.25;62.40;100396.32;1704897;81;21072;-72
2021/08/03 04:37:10;;;;;;;6.42;2.20;;;;;;;19.26;62.27;100397.45;1721831;80;21124;-73
2021/08/03 04:39:36;;;;;;;5.30;2.50;;;;;;;19.25;62.15;100397.66;1735919;80;21169;-74
2021/08/03 04:42:04;;;;;;;6.12;2.40;;;;;;;19.26;62.33;100400.11;1741011;80;21114;-74
2021/08/03 04:44:30;;;;;;;5.80;2.33;;;;;;;19.31;62.13;100392.40;1737708;80;21090;-75
2021/08/03 04:46:57;;;;;;;4.37;2.40;;;;;;;19.43;61.85;100396.83;1719406;80;21120;-74
2021/08/03 04:49:24;;;;;;;4.65;2.60;;;;;;;19.49;61.76;100397.42;1719266;80;21055;-71
2021/08/03 04:51:51;;;;;;;5.50;2.33;;;;;;;19.51;61.83;100400.42;1735110;80;21079;-72
2021/08/03 04:54:17;;;;;;;4.85;2.08;;;;;;;19.53;61.91;100389.87;1735171;80;21047;-74
2021/08/03 04:56:44;;;;;;;5.72;2.67;;;;;;;19.56;61.57;100391.37;1736574;80;21063;-72
2021/08/03 04:59:10;;;;;;;5.05;2.80;;;;;;;19.56;61.56;100391.37;1710252;81;21084;-69
2021/08/03 05:01:37;;;;;;;7.20;2.85;;;;;;;19.56;61.56;100394.03;1731994;80;21080;-76
2021/08/03 05:04:04;;;;;;;5.47;2.30;;;;;;;19.58;61.83;100392.01;1691458;84;21136;-74
2021/08/03 05:06:30;;;;;;;7.22;2.85;;;;;;;19.66;61.92;100387.92;1732540;80;21130;-76
2021/08/03 05:08:58;;;;;;;5.50;2.65;;;;;;;19.83;61.70;100391.28;1732215;80;22035;-72
2021/08/03 05:11:25;;;;;;;5.30;2.72;;;;;;;19.94;61.39;100394.84;1740112;80;21111;-75
2021/08/03 05:13:54;;;;;;;4.83;2.52;;;;;;;20.02;60.95;100396.58;1735535;80;22132;-72
2021/08/03 05:16:21;;;;;;;4.92;2.45;;;;;;;20.09;60.97;100396.19;1732129;80;21967;-73
2021/08/03 05:18:48;;;;;;;5.80;3.05;;;;;;;20.12;60.33;100391.78;1730922;80;21091;-75
2021/08/03 05:21:15;;;;;;;5.95;3.08;;;;;;;20.16;60.46;100398.42;1736693;80;21012;-71
2021/08/03 05:23:41;;;;;;;6.10;3.05;;;;;;;20.20;60.29;100406.89;1717574;80;21122;-69
2021/08/03 05:26:09;;;;;;;7.03;2.90;;;;;;;20.27;60.08;100405.12;1739471;80;21058;-71
2021/08/03 05:28:36;;;;;;;4.87;2.45;;;;;;;20.31;60.27;100405.09;1703735;82;22902;-71
2021/08/03 05:31:03;;;;;;;4.25;2.50;;;;;;;20.38;59.96;100414.02;1729717;80;21071;-69
2021/08/03 05:33:30;;;;;;;6.12;3.40;;;;;;;20.47;59.50;100411.25;1739787;80;21084;-72
2021/08/03 05:35:56;;;;;;;5.30;2.50;;;;;;;20.54;59.29;100415.67;1727597;80;21689;-69
2021/08/03 05:38:23;;;;;;;5.80;3.30;;;;;;;20.60;59.14;100416.23;1739012;80;21131;-70
2021/08/03 05:40:49;;;;;;;5.40;2.90;;;;;;;20.65;59.03;100413.55;1760443;80;21550;-71
2021/08/03 05:43:15;;;;;;;5.22;3.20;;;;;;;20.72;59.01;100407.25;1710443;80;21071;-77
2021/08/03 05:45:42;;;;;;;7.42;3.08;;;;;;;20.80;59.08;100417.01;1746440;80;21053;-69
2021/08/03 05:48:09;;;;;;;6.28;3.47;;;;;;;20.87;58.44;100413.89;1741591;81;21168;-73
2021/08/03 05:50:35;;;;;;;5.62;2.98;;;;;;;20.94;58.33;100415.30;1709721;82;21029;-74
2021/08/03 05:53:02;;;;;;;7.78;3.30;;;;;;;21.01;57.94;100427.40;1741791;80;22152;-70
2021/08/03 05:55:29;;;;;;;5.00;2.98;;;;;;;21.06;57.71;100427.66;1741222;80;21103;-70
2021/08/03 05:57:56;;;;;;;5.67;2.90;;;;;;;21.07;57.64;100424.80;1701766;82;21591;-72
2021/08/03 06:00:23;;;;;;;5.15;2.95;;;;;;;21.09;57.60;100425.94;1704423;82;21137;-72
2021/08/03 06:02:49;;;;;;;9.58;3.08;;;;;;;21.13;57.43;100425.38;1710013;82;21022;-72
2021/08/03 06:05:15;;;;;;;5.92;2.62;;;;;;;21.20;57.29;100431.28;1709611;82;21099;-69
2021/08/03 06:07:44;;;;;;;4.50;2.67;;;;;;;21.29;56.96;100441.67;1717606;80;21056;-70
2021/08/03 06:10:14;;;;;;;6.58;2.70;;;;;;;21.42;56.24;100442.83;1746283;80;21530;-70
2021/08/03 06:12:46;;;;;;;7.33;2.83;;;;;;;21.49;55.97;100444.55;1747680;80;21478;-70
2021/08/03 06:15:13;;;;;;;8.00;3.58;;;;;;;21.56;56.07;100443.27;1710136;80;21578;-72
2021/08/03 06:17:45;;;;;;;4.95;2.95;;;;;;;21.65;56.01;100452.84;1740256;80;21933;-70
2021/08/03 06:20:13;;;;;;;4.80;2.75;;;;;;;21.77;56.20;100447.77;1748615;80;21115;-71
2021/08/03 06:22:40;;;;;;;6.62;3.10;;;;;;;21.91;56.01;100451.37;1719962;80;21116;-71
2021/08/03 06:25:10;;;;;;;5.17;2.90;;;;;;;22.03;55.49;100448.97;1743893;80;21040;-71
2021/08/03 06:27:37;;;;;;;4.95;2.92;;;;;;;22.11;54.41;100441.27;1738482;80;21070;-79
2021/08/03 06:30:06;;;;;;;7.67;3.10;;;;;;;22.13;54.40;100443.27;1752077;81;21475;-78
2021/08/03 06:32:33;;;;;;;5.45;3.00;;;;;;;22.13;54.26;100443.27;1744589;80;21049;-72
2021/08/03 06:35:00;;;;;;;5.67;2.90;;;;;;;22.16;54.28;100445.03;1706435;82;21624;-71
2021/08/03 06:37:27;;;;;;;6.25;2.90;;;;;;;22.20;54.28;100446.28;1706469;82;21071;-70
2021/08/03 06:39:53;;;;;;;4.80;2.65;;;;;;;22.23;53.77;100445.89;1685643;83;21063;-70
2021/08/03 06:42:48;;;;;;;9.03;2.95;;;;;;;22.25;53.81;100443.02;1713970;82;21563;-70
2021/08/03 06:45:24;;;;;;;6.83;2.77;;;;;;;22.31;53.98;100446.77;1705555;82;21096;-72
2021/08/03 06:48:12;;;;;;;5.90;2.85;;;;;;;22.36;53.65;100455.89;1686501;83;21078;-71
2021/08/03 06:50:41;;;;;;;5.20;3.15;;;;;;;22.41;53.38;100453.44;1719247;82;22324;-71
2021/08/03 06:53:09;;;;;;;5.75;2.75;;;;;;;22.45;53.88;100464.06;1714007;82;21027;-70
2021/08/03 06:55:42;;;;;;;5.37;3.25;;;;;;;22.48;53.05;100456.64;1715559;82;22347;-69
2021/08/03 06:58:22;;;;;;;6.42;3.20;;;;;;;22.54;52.95;100465.24;1681844;83;21414;-70
2021/08/03 07:00:49;;;;;;;5.12;3.10;;;;;;;22.56;52.15;100465.86;1657025;83;21073;-73
2021/08/03 07:03:15;;;;;;;6.33;3.42;;;;;;;22.54;52.02;100462.04;1664860;83;21091;-72
2021/08/03 07:05:51;;;;;;;5.15;2.70;;;;;;;22.55;52.65;100465.05;1691840;83;21607;-71
2021/08/03 07:08:17;;;;;;;8.60;3.15;;;;;;;22.59;52.69;100462.79;1695071;83;21165;-71
2021/08/03 07:10:43;;;;;;;5.08;3.08;;;;;;;22.68;52.01;100459.41;1689357;83;22052;-70
2021/08/03 07:13:13;;;;;;;4.97;2.92;;;;;;;22.76;52.27;100461.43;1692134;83;21071;-70
2021/08/03 07:15:41;;;;;;;5.35;3.10;;;;;;;22.87;51.43;100461.88;1691410;83;21122;-70
2021/08/03 07:18:10;;;;;;;5.33;2.80;;;;;;;22.92;50.51;100460.22;1692505;83;21476;-70
2021/08/03 07:20:41;;;;;;;6.05;3.40;;;;;;;22.96;50.87;100461.98;1686054;83;22259;-71
2021/08/03 07:23:09;;;;;;;5.87;3.27;;;;;;;22.99;51.11;100464.27;1676112;83;21554;-71
2021/08/03 07:25:35;;;;;;;4.53;2.65;;;;;;;23.03;50.75;100459.31;1690505;83;22054;-72
2021/08/03 07:28:02;;;;;;;5.42;2.87;;;;;;;23.04;50.23;100459.12;1690460;83;21054;-71
2021/08/03 07:30:28;;;;;;;7.05;3.55;;;;;;;23.06;50.11;100454.89;1662115;83;21383;-70
2021/08/03 07:32:55;;;;;;;4.28;2.40;;;;;;;23.10;50.92;100462.38;1691788;83;21168;-70
2021/08/03 07:35:21;;;;;;;4.58;2.55;;;;;;;23.17;48.89;100457.02;1713999;82;21067;-70
2021/08/03 07:37:48;;;;;;;5.05;2.72;;;;;;;23.23;49.16;100460.73;1686069;83;21117;-77
2021/08/03 07:40:14;;;;;;;5.65;3.00;;;;;;;23.31;49.34;100453.30;1712196;82;21575;-71
2021/08/03 07:42:40;;;;;;;5.33;2.70;;;;;;;23.35;48.65;100451.88;1700525;83;21034;-71
2021/08/03 07:45:08;;;;;;;4.53;2.67;;;;;;;23.41;47.91;100455.59;1730659;81;21117;-72
2021/08/03 07:47:34;;;;;;;5.12;2.70;;;;;;;23.46;47.87;100452.30;1727514;81;21542;-69
2021/08/03 07:50:01;;;;;;;4.42;2.45;;;;;;;23.51;47.66;100445.78;1704562;82;21040;-70
2021/08/03 07:52:27;;;;;;;7.12;3.00;;;;;;;23.59;46.78;100448.77;1705049;82;21491;-69
2021/08/03 07:54:54;;;;;;;4.95;2.75;;;;;;;23.63;47.00;100452.70;1699535;82;21061;-71
2021/08/03 07:57:22;;;;;;;5.45;2.72;;;;;;;23.72;46.01;100446.07;1731030;81;23342;-71
2021/08/03 07:59:51;;;;;;;6.72;3.00;;;;;;;23.79;45.39;100452.28;1722056;81;21105;-73
2021/08/03 08:02:17;;;;;;;5.40;2.65;;;;;;;23.83;45.29;100449.51;1728454;81;21355;-71
2021/08/03 08:04:43;;;;;;;5.72;3.10;;;;;;;23.89;46.06;100446.00;1726600;81;21052;-71
2021/08/03 08:07:10;;;;;;;5.12;2.83;;;;;;;23.99;46.15;100448.26;1731653;81;21569;-70
2021/08/03 08:09:36;;;;;;;6.30;3.00;;;;;;;24.10;45.63;100441.41;1705500;81;21073;-70
2021/08/03 08:12:03;;;;;;;5.03;2.72;;;;;;;24.19;45.96;100441.99;1659022;83;21668;-71
2021/08/03 08:14:32;;;;;;;4.47;2.27;;;;;;;24.23;44.91;100443.23;1729747;81;21585;-71
2021/08/03 08:17:01;;;;;;;6.05;2.98;;;;;;;24.22;44.62;100441.05;1699473;81;21040;-70
2021/08/03 08:19:28;;;;;;;4.87;2.47;;;;;;;24.20;44.31;100436.41;1728293;81;21555;-70
2021/08/03 08:21:54;;;;;;;7.08;2.60;;;;;;;24.22;44.41;100442.39;1686266;83;21099;-71
2021/08/03 08:24:20;;;;;;;4.25;2.20;;;;;;;24.26;44.55;100436.09;1726692;81;21046;-71
2021/08/03 08:26:47;;;;;;;4.20;2.02;;;;;;;24.32;43.75;100435.23;1733588;81;21036;-71
2021/08/03 08:29:16;;;;;;;4.35;2.42;;;;;;;24.41;43.44;100433.13;1728196;81;21031;-71
2021/08/03 08:31:45;;;;;;;6.53;2.37;;;;;;;24.49;42.41;100432.89;1731139;81;21059;-73
2021/08/03 08:34:11;;;;;;;4.95;2.60;;;;;;;24.48;41.64;100436.11;1728643;81;21138;-72
2021/08/03 08:36:38;;;;;;;3.60;1.98;;;;;;;24.51;42.17;100436.21;1725515;81;21052;-71
2021/08/03 08:39:06;;;;;;;4.62;2.70;;;;;;;24.54;42.11;100438.45;1711626;81;21045;-72
2021/08/03 08:41:35;;;;;;;4.62;2.30;;;;;;;24.55;42.50;100442.02;1735645;80;21040;-71
2021/08/03 08:44:02;;;;;;;4.37;2.42;;;;;;;24.53;42.67;100437.31;1747967;80;21033;-72
2021/08/03 08:46:36;;;;;;;4.95;2.55;;;;;;;24.54;43.21;100439.80;1745263;80;21447;-72
2021/08/03 08:49:04;;;;;;;5.58;2.17;;;;;;;24.58;43.60;100435.69;1741908;80;20989;-70
2021/08/03 08:51:31;;;;;;;4.70;2.30;;;;;;;24.68;42.85;100434.39;1740763;80;21112;-72
2021/08/03 08:55:42;;;;;;;7.83;2.70;;;;;;;24.84;42.32;100426.63;1801155;77;22805;-65
2021/08/03 08:58:08;;;;;;;4.60;2.58;;;;;;;24.89;42.96;100430.03;1763745;78;21111;-66
2021/08/03 09:00:34;;;;;;;4.85;2.65;;;;;;;25.00;42.99;100433.39;1768543;78;21147;-66
2021/08/03 09:03:01;;;;;;;4.62;2.27;;;;;;;25.08;41.26;100435.50;1769742;78;21088;-65
2021/08/03 09:05:43;;;;;;;5.17;2.20;;;;;;;25.06;41.87;100431.68;1765994;78;21113;-66
2021/08/03 09:08:10;;;;;;;4.62;2.83;;;;;;;25.06;42.17;100429.52;1771008;78;21046;-66
2021/08/03 09:10:40;;;;;;;4.20;2.20;;;;;;;25.09;41.99;100426.39;1776727;80;21041;-66
2021/08/03 09:13:11;;;;;;;4.95;2.50;;;;;;;25.10;41.99;100429.38;1768300;78;21134;-63
2021/08/03 09:15:41;;;;;;;6.12;2.60;;;;;;;25.04;41.61;100427.04;1769746;78;21645;-66
2021/08/03 09:18:34;;;;;;;5.20;2.98;;;;;;;25.02;42.08;100420.53;1768334;78;22356;-67
2021/08/03 09:21:01;;;;;;;4.28;2.40;;;;;;;25.11;42.06;100413.53;1766126;78;21094;-70
2021/08/03 09:23:50;;;;;;;6.47;2.72;;;;;;;25.26;41.36;100412.72;1746007;80;21160;-68
2021/08/03 09:26:18;;;;;;;4.60;2.65;;;;;;;25.38;40.86;100412.30;1765196;78;21129;-66
2021/08/03 09:29:02;;;;;;;6.30;2.42;;;;;;;25.44;40.87;100405.77;1743791;78;21113;-70
2021/08/03 09:31:32;;;;;;;6.20;2.52;;;;;;;25.42;41.17;100416.76;1769773;78;21078;-66
2021/08/03 09:33:59;;;;;;;5.08;2.75;;;;;;;25.39;41.21;100408.58;1766932;78;21554;-71
2021/08/03 09:36:54;;;;;;;5.87;2.50;;;;;;;25.43;40.64;100405.45;1745431;78;21073;-66
2021/08/03 09:39:45;;;;;;;5.87;2.47;;;;;;;25.44;40.36;100407.92;1767318;78;21843;-69
2021/08/03 09:42:18;;;;;;;5.10;2.40;;;;;;;25.43;40.06;100400.88;1765017;78;21031;-70
2021/08/03 09:44:53;;;;;;;4.25;2.22;;;;;;;25.42;39.62;100394.36;1714522;81;21079;-68
2021/08/03 09:47:20;;;;;;;4.50;2.58;;;;;;;25.47;40.60;100391.83;1713757;81;21708;-68
2021/08/03 09:49:50;;;;;;;4.95;2.60;;;;;;;25.57;40.56;100386.25;1705945;83;21146;-66
2021/08/03 09:52:22;;;;;;;5.67;3.10;;;;;;;25.64;40.55;100390.23;1735153;81;21178;-75
2021/08/03 09:54:49;;;;;;;5.92;3.35;;;;;;;25.67;40.53;100392.99;1729832;81;21783;-74
2021/08/03 09:57:23;;;;;;;5.50;3.17;;;;;;;25.65;41.07;100385.66;1726761;82;21368;-73
2021/08/03 09:59:50;;;;;;;5.55;2.47;;;;;;;25.66;40.84;100385.97;1769697;79;21062;-69
2021/08/03 10:02:20;;;;;;;5.15;2.75;;;;;;;25.66;40.61;100382.75;1763458;79;21094;-69
2021/08/03 10:04:47;;;;;;;6.08;2.90;;;;;;;25.63;39.66;100383.72;1764075;79;21586;-75
2021/08/03 10:07:14;;;;;;;4.60;2.72;;;;;;;25.58;40.68;100381.69;1770733;79;21141;-69
2021/08/03 10:09:42;;;;;;;5.20;2.60;;;;;;;25.59;40.80;100380.64;1765416;79;21081;-68
2021/08/03 10:12:09;;;;;;;4.58;2.70;;;;;;;25.67;40.65;100383.05;1757883;79;20986;-71
2021/08/03 10:14:37;;;;;;;4.17;2.08;;;;;;;25.74;40.62;100371.68;1767060;79;21007;-75
2021/08/03 10:17:04;;;;;;;6.03;2.35;;;;;;;25.87;40.77;100373.92;1762433;79;21939;-66
2021/08/03 10:19:35;;;;;;;5.47;2.52;;;;;;;26.01;40.18;100375.97;1739430;79;21062;-67
2021/08/03 10:22:19;;;;;;;4.80;2.40;;;;;;;26.15;39.86;100372.08;1768137;79;21058;-67
2021/08/03 10:25:03;;;;;;;5.42;2.12;;;;;;;26.31;38.89;100383.60;1748999;79;21105;-69
2021/08/03 10:27:47;;;;;;;5.42;2.30;;;;;;;26.40;38.63;100381.41;1763141;79;21556;-66
2021/08/03 10:30:34;;;;;;;4.33;2.02;;;;;;;26.44;38.78;100381.77;1761593;79;21693;-71
2021/08/03 10:33:10;;;;;;;3.98;2.00;;;;;;;26.52;37.52;100374.72;1762592;79;21062;-68
2021/08/03 10:35:40;;;;;;;4.55;2.15;;;;;;;26.62;37.53;100372.28;1762242;79;21109;-71
2021/08/03 10:38:18;;;;;;;4.45;2.12;;;;;;;26.77;37.37;100368.39;1762628;79;21065;-74
2021/08/03 10:40:50;;;;;;;4.35;1.90;;;;;;;26.93;36.64;100377.15;1762967;79;21082;-75
2021/08/03 10:43:28;;;;;;;4.05;1.95;;;;;;;27.02;36.26;100379.02;1761128;79;21055;-73
2021/08/03 10:46:17;;;;;;;4.37;2.20;;;;;;;27.09;36.77;100372.16;1759586;79;21117;-73
2021/08/03 10:48:45;;;;;;;5.05;2.15;;;;;;;27.18;36.63;100373.45;1766716;79;21086;-72
2021/08/03 10:51:20;;;;;;;5.08;2.00;;;;;;;27.22;35.74;100367.35;1762781;79;21157;-69
2021/08/03 10:54:14;;;;;;;6.00;2.83;;;;;;;27.29;35.82;100371.32;1737690;80;21137;-68
2021/08/03 10:56:58;;;;;;;4.12;2.15;;;;;;;27.34;36.00;100374.14;1754734;80;21024;-72
2021/08/03 10:59:39;;;;;;;4.10;2.10;;;;;;;27.43;36.19;100368.67;1758018;80;21046;-68
2021/08/03 11:02:17;;;;;;;5.22;2.25;;;;;;;27.52;35.80;100366.97;1760445;80;21059;-74
2021/08/03 11:04:55;;;;;;;4.50;2.30;;;;;;;27.57;35.76;100363.88;1758819;79;21141;-71
2021/08/03 11:07:32;;;;;;;5.00;2.58;;;;;;;27.65;35.61;100376.72;1758264;80;21106;-62
2021/08/03 11:10:21;;;;;;;4.00;2.20;;;;;;;27.70;35.59;100376.84;1758195;80;21219;-74
2021/08/03 11:12:50;;;;;;;7.05;2.70;;;;;;;27.71;34.86;100370.38;1762045;80;21098;-70
2021/08/03 11:15:26;;;;;;;5.03;1.95;;;;;;;27.66;33.95;100377.03;1763623;80;21377;-64
2021/08/03 11:18:01;;;;;;;3.95;2.30;;;;;;;27.60;33.96;100370.67;1758502;79;21062;-72
2021/08/03 11:20:38;;;;;;;;;;;;;;;27.61;33.89;100358.27;1758333;80;21077;-71
2021/08/03 11:23:13;;;;;;;4.53;2.22;;;;;;;27.72;34.93;100351.73;1735367;80;21806;-69
2021/08/03 11:25:43;;;;;;;5.03;2.30;;;;;;;27.88;34.99;100346.95;1760633;80;21533;-73
2021/08/03 11:28:15;;;;;;;4.58;2.25;;;;;;;28.11;34.05;100353.38;1731978;80;21058;-71
2021/08/03 11:30:45;;;;;;;4.42;2.00;;;;;;;28.16;33.60;100344.04;1755350;80;21070;-71
2021/08/03 11:33:13;;;;;;;4.10;2.00;;;;;;;28.19;33.34;100347.59;1731135;80;21071;-70
2021/08/03 11:35:41;;;;;;;4.03;2.10;;;;;;;28.13;33.05;100353.44;1758281;80;21508;-70
2021/08/03 11:38:16;;;;;;;3.50;1.72;;;;;;;28.01;33.51;100350.47;1754289;79;21723;-69
2021/08/03 11:40:42;;;;;;;3.58;1.80;;;;;;;27.90;33.53;100342.13;1762164;79;21724;-68
2021/08/03 11:43:09;;;;;;;5.50;2.17;;;;;;;27.89;32.25;100341.84;1759229;79;21086;-68